Главная страница
METAR-TAF:

METAR-TAF

Аэропорты :

Mora–Siljan

Мура, Швеция

широта: 60-57-31N, долгота: 14-30-40E, высота над уровнем моря: 193 м

Текущие метеонаблюдения

Эта сводка был подготовлена 36 минут назад, в 10:20 UTC
Ветер 6 Узел от восточно-юго-восточный
Температура 13°C
Влажность 100%
Давление 995 hPa
Видимость 10 км и более

METAR: ESKM 241020Z AUTO 11006KT 9999 R16/P2000N R34///// OVC074/// 13/13 Q0995

Время: 12:56 (10:56 UTC)


TAF: отсутствует

Метеонаблюдения и прогнозы для более 4000 аэропортов (сводки METAR и TAF).

Имеющиеся станции представлены на карте желтыми и красными точками.

Чтобы увидеть название станции, наведите на нее мышь.

Затем щелкните, чтобы увидеть метеонаблюдения и метеопрогнозы.

Управление картой: чтобы увеличить масштаб, щелкните зеленые кнопки с черным крестиком; чтобы уменьшить масштаб, щелкните зеленую кнопку с тире; для просмотра соседних карт щелкайте зеленые стрелки.


METAR-TAF: